sensor_id;sensor_type;location;lat;lon;timestamp;P1;durP1;ratioP1;P2;durP2;ratioP2
75576;SDS011;64157;50.138;14.544;2022-12-16T00:01:10;88.80;;;36.13;;
75576;SDS011;64157;50.138;14.544;2022-12-16T00:03:38;94.45;;;39.28;;
75576;SDS011;64157;50.138;14.544;2022-12-16T00:06:04;91.00;;;39.28;;
75576;SDS011;64157;50.138;14.544;2022-12-16T00:08:32;106.65;;;39.47;;
75576;SDS011;64157;50.138;14.544;2022-12-16T00:10:59;101.93;;;38.95;;
75576;SDS011;64157;50.138;14.544;2022-12-16T00:13:26;101.45;;;40.17;;
75576;SDS011;64157;50.138;14.544;2022-12-16T00:15:52;94.97;;;38.17;;
75576;SDS011;64157;50.138;14.544;2022-12-16T00:18:18;102.60;;;41.22;;
75576;SDS011;64157;50.138;14.544;2022-12-16T00:20:47;110.00;;;43.28;;
75576;SDS011;64157;50.138;14.544;2022-12-16T00:23:15;99.97;;;42.47;;
75576;SDS011;64157;50.138;14.544;2022-12-16T00:25:42;112.18;;;43.80;;
75576;SDS011;64157;50.138;14.544;2022-12-16T00:28:08;96.38;;;40.55;;
75576;SDS011;64157;50.138;14.544;2022-12-16T00:30:34;98.93;;;39.08;;
75576;SDS011;64157;50.138;14.544;2022-12-16T00:33:00;90.93;;;37.88;;
75576;SDS011;64157;50.138;14.544;2022-12-16T00:35:25;93.55;;;35.72;;
75576;SDS011;64157;50.138;14.544;2022-12-16T00:37:51;89.53;;;34.05;;
75576;SDS011;64157;50.138;14.544;2022-12-16T00:40:16;78.35;;;32.70;;
75576;SDS011;64157;50.138;14.544;2022-12-16T00:42:42;89.57;;;34.33;;
75576;SDS011;64157;50.138;14.544;2022-12-16T00:45:07;84.13;;;32.55;;
75576;SDS011;64157;50.138;14.544;2022-12-16T00:47:33;62.92;;;27.38;;
75576;SDS011;64157;50.138;14.544;2022-12-16T00:49:58;76.82;;;33.00;;
75576;SDS011;64157;50.138;14.544;2022-12-16T00:52:24;83.05;;;31.92;;
75576;SDS011;64157;50.138;14.544;2022-12-16T00:54:49;80.30;;;34.55;;
75576;SDS011;64157;50.138;14.544;2022-12-16T00:57:14;93.80;;;34.38;;
75576;SDS011;64157;50.138;14.544;2022-12-16T00:59:40;77.80;;;31.90;;
75576;SDS011;64157;50.138;14.544;2022-12-16T01:02:05;80.90;;;31.73;;
75576;SDS011;64157;50.138;14.544;2022-12-16T01:04:31;82.68;;;33.33;;
75576;SDS011;64157;50.138;14.544;2022-12-16T01:06:56;88.50;;;35.30;;
75576;SDS011;64157;50.138;14.544;2022-12-16T01:09:22;86.97;;;33.95;;
75576;SDS011;64157;50.138;14.544;2022-12-16T01:11:47;71.50;;;30.67;;
75576;SDS011;64157;50.138;14.544;2022-12-16T01:14:12;75.13;;;29.70;;
75576;SDS011;64157;50.138;14.544;2022-12-16T01:16:38;79.65;;;30.92;;
75576;SDS011;64157;50.138;14.544;2022-12-16T01:19:03;79.53;;;32.08;;
75576;SDS011;64157;50.138;14.544;2022-12-16T01:21:29;79.60;;;32.33;;
75576;SDS011;64157;50.138;14.544;2022-12-16T01:23:54;77.13;;;29.80;;
75576;SDS011;64157;50.138;14.544;2022-12-16T01:26:20;85.07;;;33.03;;
75576;SDS011;64157;50.138;14.544;2022-12-16T01:28:48;80.35;;;30.77;;
75576;SDS011;64157;50.138;14.544;2022-12-16T01:31:15;72.72;;;28.38;;
75576;SDS011;64157;50.138;14.544;2022-12-16T01:33:42;77.30;;;30.38;;
75576;SDS011;64157;50.138;14.544;2022-12-16T01:36:08;74.80;;;30.20;;
75576;SDS011;64157;50.138;14.544;2022-12-16T01:38:34;78.53;;;31.17;;
75576;SDS011;64157;50.138;14.544;2022-12-16T01:41:00;77.53;;;30.48;;
75576;SDS011;64157;50.138;14.544;2022-12-16T01:43:27;71.57;;;30.45;;
75576;SDS011;64157;50.138;14.544;2022-12-16T01:46:16;74.70;;;28.98;;
75576;SDS011;64157;50.138;14.544;2022-12-16T01:51:17;79.18;;;28.33;;
75576;SDS011;64157;50.138;14.544;2022-12-16T01:53:51;78.55;;;32.38;;
75576;SDS011;64157;50.138;14.544;2022-12-16T01:56:22;82.97;;;32.35;;
75576;SDS011;64157;50.138;14.544;2022-12-16T01:58:51;79.40;;;30.20;;
75576;SDS011;64157;50.138;14.544;2022-12-16T02:01:18;70.53;;;28.95;;
75576;SDS011;64157;50.138;14.544;2022-12-16T02:03:44;76.00;;;29.83;;
75576;SDS011;64157;50.138;14.544;2022-12-16T02:06:11;77.75;;;32.28;;
75576;SDS011;64157;50.138;14.544;2022-12-16T02:08:36;74.65;;;29.50;;
75576;SDS011;64157;50.138;14.544;2022-12-16T02:40:31;62.63;;;25.77;;
75576;SDS011;64157;50.138;14.544;2022-12-16T02:43:08;69.40;;;26.63;;
75576;SDS011;64157;50.138;14.544;2022-12-16T02:45:41;63.08;;;25.00;;
75576;SDS011;64157;50.138;14.544;2022-12-16T02:48:09;61.47;;;23.73;;
75576;SDS011;64157;50.138;14.544;2022-12-16T02:50:39;70.18;;;27.23;;
75576;SDS011;64157;50.138;14.544;2022-12-16T02:53:09;64.38;;;25.73;;
75576;SDS011;64157;50.138;14.544;2022-12-16T02:55:47;63.63;;;25.60;;
75576;SDS011;64157;50.138;14.544;2022-12-16T03:01:53;60.13;;;24.23;;
75576;SDS011;64157;50.138;14.544;2022-12-16T03:05:06;65.10;;;26.10;;
75576;SDS011;64157;50.138;14.544;2022-12-16T03:07:08;56.80;;;25.13;;
75576;SDS011;64157;50.138;14.544;2022-12-16T03:09:38;65.30;;;25.27;;
75576;SDS011;64157;50.138;14.544;2022-12-16T03:12:06;63.28;;;25.70;;
75576;SDS011;64157;50.138;14.544;2022-12-16T03:14:35;50.85;;;22.60;;
75576;SDS011;64157;50.138;14.544;2022-12-16T03:17:05;62.80;;;25.77;;
75576;SDS011;64157;50.138;14.544;2022-12-16T03:19:32;69.65;;;25.73;;
75576;SDS011;64157;50.138;14.544;2022-12-16T03:22:07;60.75;;;25.17;;
75576;SDS011;64157;50.138;14.544;2022-12-16T03:24:36;57.55;;;23.58;;
75576;SDS011;64157;50.138;14.544;2022-12-16T03:29:36;53.78;;;23.08;;
75576;SDS011;64157;50.138;14.544;2022-12-16T03:35:04;53.85;;;21.23;;
75576;SDS011;64157;50.138;14.544;2022-12-16T03:37:37;49.95;;;19.88;;
75576;SDS011;64157;50.138;14.544;2022-12-16T03:40:04;44.95;;;19.92;;
75576;SDS011;64157;50.138;14.544;2022-12-16T03:42:33;55.58;;;22.58;;
75576;SDS011;64157;50.138;14.544;2022-12-16T03:45:01;48.35;;;20.48;;
75576;SDS011;64157;50.138;14.544;2022-12-16T03:47:27;56.22;;;22.00;;
75576;SDS011;64157;50.138;14.544;2022-12-16T03:49:53;49.65;;;20.67;;
75576;SDS011;64157;50.138;14.544;2022-12-16T03:52:19;55.35;;;22.63;;
75576;SDS011;64157;50.138;14.544;2022-12-16T03:54:45;56.92;;;23.73;;
75576;SDS011;64157;50.138;14.544;2022-12-16T03:57:11;49.72;;;21.48;;
75576;SDS011;64157;50.138;14.544;2022-12-16T03:59:36;60.58;;;24.15;;
75576;SDS011;64157;50.138;14.544;2022-12-16T04:02:02;51.75;;;22.13;;
75576;SDS011;64157;50.138;14.544;2022-12-16T04:04:28;52.10;;;21.73;;
75576;SDS011;64157;50.138;14.544;2022-12-16T04:06:53;55.30;;;21.20;;
75576;SDS011;64157;50.138;14.544;2022-12-16T04:09:37;49.63;;;20.58;;
75576;SDS011;64157;50.138;14.544;2022-12-16T04:12:03;52.95;;;19.85;;
75576;SDS011;64157;50.138;14.544;2022-12-16T04:14:47;49.47;;;20.08;;
75576;SDS011;64157;50.138;14.544;2022-12-16T04:17:31;54.60;;;20.88;;
75576;SDS011;64157;50.138;14.544;2022-12-16T04:20:15;51.50;;;20.73;;
75576;SDS011;64157;50.138;14.544;2022-12-16T04:23:00;46.25;;;19.70;;
75576;SDS011;64157;50.138;14.544;2022-12-16T04:25:49;43.05;;;18.83;;
75576;SDS011;64157;50.138;14.544;2022-12-16T04:28:15;49.42;;;21.25;;
75576;SDS011;64157;50.138;14.544;2022-12-16T04:30:40;47.85;;;19.63;;
75576;SDS011;64157;50.138;14.544;2022-12-16T04:33:10;48.10;;;21.35;;
75576;SDS011;64157;50.138;14.544;2022-12-16T04:35:56;47.30;;;20.38;;
75576;SDS011;64157;50.138;14.544;2022-12-16T04:38:41;42.10;;;19.30;;
75576;SDS011;64157;50.138;14.544;2022-12-16T04:41:24;38.88;;;18.02;;
75576;SDS011;64157;50.138;14.544;2022-12-16T04:44:08;39.65;;;18.15;;
75576;SDS011;64157;50.138;14.544;2022-12-16T04:46:52;47.58;;;19.02;;
75576;SDS011;64157;50.138;14.544;2022-12-16T04:49:36;46.40;;;20.17;;
75576;SDS011;64157;50.138;14.544;2022-12-16T04:52:21;51.20;;;21.20;;
75576;SDS011;64157;50.138;14.544;2022-12-16T04:55:05;42.47;;;20.25;;
75576;SDS011;64157;50.138;14.544;2022-12-16T04:57:50;51.65;;;20.08;;
75576;SDS011;64157;50.138;14.544;2022-12-16T05:00:40;48.75;;;20.83;;
75576;SDS011;64157;50.138;14.544;2022-12-16T05:03:24;52.22;;;19.63;;
75576;SDS011;64157;50.138;14.544;2022-12-16T05:06:09;49.58;;;19.73;;
75576;SDS011;64157;50.138;14.544;2022-12-16T05:08:53;50.03;;;21.27;;
75576;SDS011;64157;50.138;14.544;2022-12-16T05:11:37;47.50;;;20.08;;
75576;SDS011;64157;50.138;14.544;2022-12-16T05:14:21;49.67;;;20.77;;
75576;SDS011;64157;50.138;14.544;2022-12-16T05:17:05;51.60;;;20.20;;
75576;SDS011;64157;50.138;14.544;2022-12-16T05:19:49;47.80;;;19.38;;
75576;SDS011;64157;50.138;14.544;2022-12-16T05:22:32;51.45;;;21.77;;
75576;SDS011;64157;50.138;14.544;2022-12-16T05:25:16;38.80;;;16.77;;
75576;SDS011;64157;50.138;14.544;2022-12-16T05:28:00;48.17;;;19.00;;
75576;SDS011;64157;50.138;14.544;2022-12-16T05:30:44;47.53;;;19.67;;
75576;SDS011;64157;50.138;14.544;2022-12-16T05:33:28;52.42;;;20.45;;
75576;SDS011;64157;50.138;14.544;2022-12-16T05:36:12;48.65;;;19.52;;
75576;SDS011;64157;50.138;14.544;2022-12-16T05:38:56;44.70;;;19.58;;
75576;SDS011;64157;50.138;14.544;2022-12-16T05:41:39;46.72;;;19.08;;
75576;SDS011;64157;50.138;14.544;2022-12-16T05:44:23;42.53;;;18.90;;
75576;SDS011;64157;50.138;14.544;2022-12-16T05:47:07;44.50;;;18.70;;
75576;SDS011;64157;50.138;14.544;2022-12-16T05:49:52;46.22;;;19.25;;
75576;SDS011;64157;50.138;14.544;2022-12-16T05:52:36;40.25;;;19.10;;
75576;SDS011;64157;50.138;14.544;2022-12-16T05:55:21;50.03;;;18.58;;
75576;SDS011;64157;50.138;14.544;2022-12-16T05:58:05;44.63;;;19.25;;
75576;SDS011;64157;50.138;14.544;2022-12-16T06:00:50;42.30;;;18.90;;
75576;SDS011;64157;50.138;14.544;2022-12-16T06:03:33;37.45;;;18.67;;
75576;SDS011;64157;50.138;14.544;2022-12-16T06:06:17;46.90;;;18.30;;
75576;SDS011;64157;50.138;14.544;2022-12-16T06:09:01;51.63;;;21.40;;
75576;SDS011;64157;50.138;14.544;2022-12-16T06:11:46;50.90;;;19.65;;
75576;SDS011;64157;50.138;14.544;2022-12-16T06:14:30;42.67;;;18.15;;
75576;SDS011;64157;50.138;14.544;2022-12-16T06:17:14;51.45;;;20.77;;
75576;SDS011;64157;50.138;14.544;2022-12-16T06:19:57;42.45;;;19.92;;
75576;SDS011;64157;50.138;14.544;2022-12-16T06:22:41;50.88;;;19.80;;
75576;SDS011;64157;50.138;14.544;2022-12-16T06:25:25;46.83;;;18.77;;
75576;SDS011;64157;50.138;14.544;2022-12-16T06:28:09;48.58;;;19.02;;
75576;SDS011;64157;50.138;14.544;2022-12-16T06:30:53;49.80;;;21.48;;
75576;SDS011;64157;50.138;14.544;2022-12-16T06:33:37;56.65;;;22.30;;
75576;SDS011;64157;50.138;14.544;2022-12-16T06:36:21;47.17;;;19.65;;
75576;SDS011;64157;50.138;14.544;2022-12-16T06:39:05;53.60;;;21.30;;
75576;SDS011;64157;50.138;14.544;2022-12-16T06:41:49;65.10;;;22.95;;
75576;SDS011;64157;50.138;14.544;2022-12-16T06:44:49;56.08;;;22.05;;
75576;SDS011;64157;50.138;14.544;2022-12-16T06:47:33;49.63;;;21.13;;
75576;SDS011;64157;50.138;14.544;2022-12-16T06:50:18;46.80;;;21.20;;
75576;SDS011;64157;50.138;14.544;2022-12-16T06:53:01;51.17;;;20.88;;
75576;SDS011;64157;50.138;14.544;2022-12-16T06:55:46;51.50;;;21.80;;
75576;SDS011;64157;50.138;14.544;2022-12-16T06:58:30;49.40;;;21.17;;
75576;SDS011;64157;50.138;14.544;2022-12-16T07:01:14;43.30;;;19.20;;
75576;SDS011;64157;50.138;14.544;2022-12-16T07:03:58;51.67;;;22.20;;
75576;SDS011;64157;50.138;14.544;2022-12-16T07:06:41;54.33;;;23.73;;
75576;SDS011;64157;50.138;14.544;2022-12-16T07:09:26;48.95;;;21.42;;
75576;SDS011;64157;50.138;14.544;2022-12-16T07:12:09;54.63;;;22.60;;
75576;SDS011;64157;50.138;14.544;2022-12-16T07:14:53;49.55;;;21.38;;
75576;SDS011;64157;50.138;14.544;2022-12-16T07:17:38;54.75;;;21.90;;
75576;SDS011;64157;50.138;14.544;2022-12-16T07:20:22;64.25;;;24.25;;
75576;SDS011;64157;50.138;14.544;2022-12-16T07:23:07;55.85;;;24.80;;
75576;SDS011;64157;50.138;14.544;2022-12-16T07:25:51;54.55;;;22.67;;
75576;SDS011;64157;50.138;14.544;2022-12-16T07:28:36;58.95;;;21.35;;
75576;SDS011;64157;50.138;14.544;2022-12-16T07:31:21;48.83;;;21.15;;
75576;SDS011;64157;50.138;14.544;2022-12-16T07:34:05;53.75;;;22.48;;
75576;SDS011;64157;50.138;14.544;2022-12-16T07:36:49;52.15;;;22.35;;
75576;SDS011;64157;50.138;14.544;2022-12-16T07:39:32;51.03;;;22.63;;
75576;SDS011;64157;50.138;14.544;2022-12-16T07:42:16;49.90;;;20.80;;
75576;SDS011;64157;50.138;14.544;2022-12-16T07:45:00;51.58;;;20.63;;
75576;SDS011;64157;50.138;14.544;2022-12-16T07:47:48;49.63;;;20.83;;
75576;SDS011;64157;50.138;14.544;2022-12-16T07:50:33;52.58;;;22.50;;
75576;SDS011;64157;50.138;14.544;2022-12-16T07:53:18;51.20;;;20.95;;
75576;SDS011;64157;50.138;14.544;2022-12-16T07:56:02;54.08;;;23.27;;
75576;SDS011;64157;50.138;14.544;2022-12-16T07:58:47;54.05;;;22.10;;
75576;SDS011;64157;50.138;14.544;2022-12-16T08:01:32;55.80;;;21.80;;
75576;SDS011;64157;50.138;14.544;2022-12-16T08:04:15;45.40;;;21.58;;
75576;SDS011;64157;50.138;14.544;2022-12-16T08:07:00;50.25;;;20.77;;
75576;SDS011;64157;50.138;14.544;2022-12-16T08:09:44;61.13;;;23.00;;
75576;SDS011;64157;50.138;14.544;2022-12-16T08:12:28;48.67;;;21.52;;
75576;SDS011;64157;50.138;14.544;2022-12-16T08:15:11;45.80;;;20.80;;
75576;SDS011;64157;50.138;14.544;2022-12-16T08:17:55;55.45;;;20.95;;
75576;SDS011;64157;50.138;14.544;2022-12-16T08:20:39;53.35;;;21.90;;
75576;SDS011;64157;50.138;14.544;2022-12-16T08:23:23;48.28;;;22.10;;
75576;SDS011;64157;50.138;14.544;2022-12-16T08:26:08;43.60;;;19.52;;
75576;SDS011;64157;50.138;14.544;2022-12-16T08:28:52;45.55;;;19.58;;
75576;SDS011;64157;50.138;14.544;2022-12-16T08:31:35;51.53;;;21.40;;
75576;SDS011;64157;50.138;14.544;2022-12-16T08:34:19;52.67;;;21.13;;
75576;SDS011;64157;50.138;14.544;2022-12-16T08:37:04;49.35;;;20.58;;
75576;SDS011;64157;50.138;14.544;2022-12-16T08:39:48;36.78;;;17.27;;
75576;SDS011;64157;50.138;14.544;2022-12-16T08:42:32;53.63;;;23.90;;
75576;SDS011;64157;50.138;14.544;2022-12-16T08:45:16;56.58;;;22.38;;
75576;SDS011;64157;50.138;14.544;2022-12-16T08:48:00;47.25;;;21.00;;
75576;SDS011;64157;50.138;14.544;2022-12-16T08:50:46;49.85;;;20.30;;
75576;SDS011;64157;50.138;14.544;2022-12-16T08:53:31;45.35;;;18.10;;
75576;SDS011;64157;50.138;14.544;2022-12-16T08:56:15;52.97;;;23.30;;
75576;SDS011;64157;50.138;14.544;2022-12-16T08:58:59;51.15;;;20.65;;
75576;SDS011;64157;50.138;14.544;2022-12-16T09:01:43;38.28;;;19.35;;
75576;SDS011;64157;50.138;14.544;2022-12-16T09:04:27;46.60;;;19.50;;
75576;SDS011;64157;50.138;14.544;2022-12-16T09:07:11;44.25;;;19.00;;
75576;SDS011;64157;50.138;14.544;2022-12-16T09:09:55;39.73;;;18.87;;
75576;SDS011;64157;50.138;14.544;2022-12-16T09:12:38;45.10;;;18.77;;
75576;SDS011;64157;50.138;14.544;2022-12-16T09:15:23;43.75;;;19.77;;
75576;SDS011;64157;50.138;14.544;2022-12-16T09:18:07;46.03;;;17.98;;
75576;SDS011;64157;50.138;14.544;2022-12-16T09:20:51;41.63;;;18.83;;
75576;SDS011;64157;50.138;14.544;2022-12-16T09:23:35;44.70;;;20.27;;
75576;SDS011;64157;50.138;14.544;2022-12-16T09:26:19;44.58;;;19.90;;
75576;SDS011;64157;50.138;14.544;2022-12-16T09:29:03;45.88;;;20.13;;
75576;SDS011;64157;50.138;14.544;2022-12-16T09:31:47;44.13;;;18.30;;
75576;SDS011;64157;50.138;14.544;2022-12-16T09:34:31;45.47;;;18.65;;
75576;SDS011;64157;50.138;14.544;2022-12-16T09:37:15;47.38;;;18.60;;
75576;SDS011;64157;50.138;14.544;2022-12-16T09:39:59;45.72;;;19.35;;
75576;SDS011;64157;50.138;14.544;2022-12-16T09:45:39;44.28;;;19.08;;
75576;SDS011;64157;50.138;14.544;2022-12-16T09:51:28;45.50;;;19.08;;
75576;SDS011;64157;50.138;14.544;2022-12-16T09:54:14;44.25;;;18.20;;
75576;SDS011;64157;50.138;14.544;2022-12-16T09:57:02;42.65;;;19.30;;
75576;SDS011;64157;50.138;14.544;2022-12-16T10:00:04;42.55;;;18.15;;
75576;SDS011;64157;50.138;14.544;2022-12-16T10:03:05;45.88;;;20.40;;
75576;SDS011;64157;50.138;14.544;2022-12-16T10:22:12;50.10;;;22.10;;
75576;SDS011;64157;50.138;14.544;2022-12-16T10:28:09;51.30;;;22.02;;
75576;SDS011;64157;50.138;14.544;2022-12-16T10:30:58;50.60;;;22.70;;
75576;SDS011;64157;50.138;14.544;2022-12-16T10:33:42;53.00;;;22.77;;
75576;SDS011;64157;50.138;14.544;2022-12-16T10:36:31;51.53;;;22.33;;
75576;SDS011;64157;50.138;14.544;2022-12-16T10:45:01;54.03;;;24.20;;
75576;SDS011;64157;50.138;14.544;2022-12-16T10:47:46;53.20;;;21.70;;
75576;SDS011;64157;50.138;14.544;2022-12-16T10:50:29;59.72;;;23.60;;
75576;SDS011;64157;50.138;14.544;2022-12-16T10:53:14;51.22;;;22.52;;
75576;SDS011;64157;50.138;14.544;2022-12-16T10:59:22;57.55;;;22.10;;
75576;SDS011;64157;50.138;14.544;2022-12-16T11:02:18;58.85;;;25.42;;
75576;SDS011;64157;50.138;14.544;2022-12-16T11:08:25;54.13;;;23.55;;
75576;SDS011;64157;50.138;14.544;2022-12-16T11:11:23;51.63;;;23.25;;
75576;SDS011;64157;50.138;14.544;2022-12-16T11:20:26;59.60;;;21.65;;
75576;SDS011;64157;50.138;14.544;2022-12-16T11:23:17;42.97;;;19.33;;
75576;SDS011;64157;50.138;14.544;2022-12-16T11:32:02;63.77;;;26.93;;
75576;SDS011;64157;50.138;14.544;2022-12-16T11:35:00;57.45;;;25.65;;
75576;SDS011;64157;50.138;14.544;2022-12-16T11:37:47;64.70;;;26.20;;
75576;SDS011;64157;50.138;14.544;2022-12-16T11:40:34;62.85;;;25.77;;
75576;SDS011;64157;50.138;14.544;2022-12-16T11:43:20;64.40;;;26.58;;
75576;SDS011;64157;50.138;14.544;2022-12-16T11:46:09;58.90;;;25.98;;
75576;SDS011;64157;50.138;14.544;2022-12-16T11:51:54;51.30;;;22.85;;
75576;SDS011;64157;50.138;14.544;2022-12-16T11:54:44;63.83;;;26.40;;
75576;SDS011;64157;50.138;14.544;2022-12-16T11:57:45;58.42;;;24.70;;
75576;SDS011;64157;50.138;14.544;2022-12-16T12:00:35;66.65;;;26.52;;
75576;SDS011;64157;50.138;14.544;2022-12-16T12:03:27;66.20;;;27.25;;
75576;SDS011;64157;50.138;14.544;2022-12-16T12:09:26;57.45;;;25.98;;
75576;SDS011;64157;50.138;14.544;2022-12-16T12:15:25;63.08;;;24.95;;
75576;SDS011;64157;50.138;14.544;2022-12-16T12:21:22;61.35;;;25.95;;
75576;SDS011;64157;50.138;14.544;2022-12-16T12:27:07;61.17;;;24.80;;
75576;SDS011;64157;50.138;14.544;2022-12-16T12:30:04;38.97;;;18.50;;
75576;SDS011;64157;50.138;14.544;2022-12-16T12:45:04;62.40;;;25.58;;
75576;SDS011;64157;50.138;14.544;2022-12-16T12:48:16;58.05;;;24.52;;
75576;SDS011;64157;50.138;14.544;2022-12-16T12:57:40;66.25;;;26.85;;
75576;SDS011;64157;50.138;14.544;2022-12-16T13:00:26;52.25;;;23.40;;
75576;SDS011;64157;50.138;14.544;2022-12-16T13:06:15;52.42;;;21.80;;
75576;SDS011;64157;50.138;14.544;2022-12-16T13:09:36;52.00;;;24.08;;
75576;SDS011;64157;50.138;14.544;2022-12-16T13:12:25;60.55;;;22.60;;
75576;SDS011;64157;50.138;14.544;2022-12-16T13:15:35;53.05;;;23.13;;
75576;SDS011;64157;50.138;14.544;2022-12-16T13:18:27;36.40;;;17.70;;
75576;SDS011;64157;50.138;14.544;2022-12-16T13:27:13;57.20;;;23.52;;
75576;SDS011;64157;50.138;14.544;2022-12-16T13:30:03;44.90;;;20.20;;
75576;SDS011;64157;50.138;14.544;2022-12-16T13:32:54;44.15;;;21.08;;
75576;SDS011;64157;50.138;14.544;2022-12-16T13:35:55;54.00;;;22.02;;
75576;SDS011;64157;50.138;14.544;2022-12-16T13:38:45;60.72;;;22.52;;
75576;SDS011;64157;50.138;14.544;2022-12-16T13:53:30;52.25;;;22.45;;
75576;SDS011;64157;50.138;14.544;2022-12-16T13:56:39;47.22;;;20.67;;
75576;SDS011;64157;50.138;14.544;2022-12-16T13:59:29;45.85;;;21.65;;
75576;SDS011;64157;50.138;14.544;2022-12-16T14:02:20;54.15;;;22.65;;
75576;SDS011;64157;50.138;14.544;2022-12-16T14:05:28;51.58;;;22.50;;
75576;SDS011;64157;50.138;14.544;2022-12-16T14:08:21;46.42;;;22.15;;
75576;SDS011;64157;50.138;14.544;2022-12-16T14:11:12;48.17;;;22.70;;
75576;SDS011;64157;50.138;14.544;2022-12-16T14:14:08;59.40;;;21.75;;
75576;SDS011;64157;50.138;14.544;2022-12-16T14:17:03;56.77;;;23.63;;
75576;SDS011;64157;50.138;14.544;2022-12-16T14:19:54;58.28;;;22.60;;
75576;SDS011;64157;50.138;14.544;2022-12-16T14:25:55;56.03;;;23.45;;
75576;SDS011;64157;50.138;14.544;2022-12-16T14:28:40;48.03;;;21.50;;
75576;SDS011;64157;50.138;14.544;2022-12-16T14:31:29;50.95;;;21.80;;
75576;SDS011;64157;50.138;14.544;2022-12-16T14:34:20;57.50;;;23.48;;
75576;SDS011;64157;50.138;14.544;2022-12-16T14:37:06;47.97;;;21.52;;
75576;SDS011;64157;50.138;14.544;2022-12-16T14:39:55;50.60;;;22.67;;
75576;SDS011;64157;50.138;14.544;2022-12-16T14:42:39;47.30;;;21.63;;
75576;SDS011;64157;50.138;14.544;2022-12-16T14:45:32;46.60;;;20.48;;
75576;SDS011;64157;50.138;14.544;2022-12-16T14:57:28;41.38;;;18.50;;
75576;SDS011;64157;50.138;14.544;2022-12-16T15:00:19;42.97;;;19.23;;
75576;SDS011;64157;50.138;14.544;2022-12-16T15:03:14;41.55;;;19.55;;
75576;SDS011;64157;50.138;14.544;2022-12-16T15:06:02;44.33;;;18.08;;
75576;SDS011;64157;50.138;14.544;2022-12-16T15:09:00;51.08;;;20.23;;
75576;SDS011;64157;50.138;14.544;2022-12-16T15:11:48;41.70;;;19.73;;
75576;SDS011;64157;50.138;14.544;2022-12-16T15:14:37;45.33;;;19.42;;
75576;SDS011;64157;50.138;14.544;2022-12-16T15:17:44;44.05;;;18.52;;
75576;SDS011;64157;50.138;14.544;2022-12-16T15:20:34;38.63;;;17.73;;
75576;SDS011;64157;50.138;14.544;2022-12-16T15:23:27;45.85;;;19.02;;
75576;SDS011;64157;50.138;14.544;2022-12-16T15:26:21;49.53;;;20.63;;
75576;SDS011;64157;50.138;14.544;2022-12-16T15:35:10;52.60;;;21.83;;
75576;SDS011;64157;50.138;14.544;2022-12-16T15:38:11;52.47;;;22.13;;
75576;SDS011;64157;50.138;14.544;2022-12-16T15:40:55;45.38;;;22.92;;
75576;SDS011;64157;50.138;14.544;2022-12-16T15:43:39;50.40;;;22.10;;
75576;SDS011;64157;50.138;14.544;2022-12-16T15:49:27;48.90;;;20.70;;
75576;SDS011;64157;50.138;14.544;2022-12-16T15:55:27;40.45;;;19.08;;
75576;SDS011;64157;50.138;14.544;2022-12-16T15:58:22;51.10;;;23.52;;
75576;SDS011;64157;50.138;14.544;2022-12-16T16:01:13;63.50;;;24.67;;
75576;SDS011;64157;50.138;14.544;2022-12-16T16:03:59;51.25;;;23.70;;
75576;SDS011;64157;50.138;14.544;2022-12-16T16:06:45;70.38;;;28.08;;
75576;SDS011;64157;50.138;14.544;2022-12-16T16:09:32;54.08;;;23.30;;
75576;SDS011;64157;50.138;14.544;2022-12-16T16:12:16;50.38;;;22.48;;
75576;SDS011;64157;50.138;14.544;2022-12-16T16:15:02;53.17;;;24.13;;
75576;SDS011;64157;50.138;14.544;2022-12-16T16:17:48;48.38;;;22.83;;
75576;SDS011;64157;50.138;14.544;2022-12-16T16:20:37;44.05;;;19.75;;
75576;SDS011;64157;50.138;14.544;2022-12-16T16:23:21;38.88;;;18.58;;
75576;SDS011;64157;50.138;14.544;2022-12-16T16:26:05;37.45;;;18.17;;
75576;SDS011;64157;50.138;14.544;2022-12-16T16:28:49;40.08;;;17.85;;
75576;SDS011;64157;50.138;14.544;2022-12-16T16:31:33;39.60;;;17.60;;
75576;SDS011;64157;50.138;14.544;2022-12-16T16:34:17;33.75;;;16.48;;
75576;SDS011;64157;50.138;14.544;2022-12-16T16:37:06;38.83;;;18.52;;
75576;SDS011;64157;50.138;14.544;2022-12-16T16:39:55;46.10;;;21.20;;
75576;SDS011;64157;50.138;14.544;2022-12-16T16:42:39;44.60;;;20.77;;
75576;SDS011;64157;50.138;14.544;2022-12-16T16:45:23;53.42;;;22.90;;
75576;SDS011;64157;50.138;14.544;2022-12-16T16:48:09;47.80;;;21.70;;
75576;SDS011;64157;50.138;14.544;2022-12-16T16:50:55;49.25;;;22.55;;
75576;SDS011;64157;50.138;14.544;2022-12-16T16:53:40;50.47;;;22.70;;
75576;SDS011;64157;50.138;14.544;2022-12-16T16:56:24;54.40;;;21.77;;
75576;SDS011;64157;50.138;14.544;2022-12-16T16:59:11;54.33;;;23.02;;
75576;SDS011;64157;50.138;14.544;2022-12-16T17:01:56;55.13;;;22.83;;
75576;SDS011;64157;50.138;14.544;2022-12-16T17:04:40;48.60;;;21.75;;
75576;SDS011;64157;50.138;14.544;2022-12-16T17:07:24;53.53;;;21.25;;
75576;SDS011;64157;50.138;14.544;2022-12-16T17:10:08;46.13;;;19.33;;
75576;SDS011;64157;50.138;14.544;2022-12-16T17:12:53;47.95;;;21.95;;
75576;SDS011;64157;50.138;14.544;2022-12-16T17:15:37;46.08;;;22.52;;
75576;SDS011;64157;50.138;14.544;2022-12-16T17:18:22;48.20;;;22.77;;
75576;SDS011;64157;50.138;14.544;2022-12-16T17:21:06;45.00;;;18.90;;
75576;SDS011;64157;50.138;14.544;2022-12-16T17:23:52;49.53;;;21.55;;
75576;SDS011;64157;50.138;14.544;2022-12-16T17:26:44;54.00;;;21.65;;
75576;SDS011;64157;50.138;14.544;2022-12-16T17:29:28;46.53;;;21.48;;
75576;SDS011;64157;50.138;14.544;2022-12-16T17:32:12;58.25;;;26.20;;
75576;SDS011;64157;50.138;14.544;2022-12-16T17:34:57;47.13;;;20.30;;
75576;SDS011;64157;50.138;14.544;2022-12-16T17:37:42;54.42;;;22.65;;
75576;SDS011;64157;50.138;14.544;2022-12-16T17:40:26;57.78;;;24.38;;
75576;SDS011;64157;50.138;14.544;2022-12-16T17:43:28;47.60;;;22.70;;
75576;SDS011;64157;50.138;14.544;2022-12-16T17:46:12;63.25;;;23.25;;
75576;SDS011;64157;50.138;14.544;2022-12-16T17:48:57;54.38;;;23.02;;
75576;SDS011;64157;50.138;14.544;2022-12-16T17:51:41;48.95;;;22.00;;
75576;SDS011;64157;50.138;14.544;2022-12-16T17:54:26;60.08;;;23.80;;
75576;SDS011;64157;50.138;14.544;2022-12-16T17:57:10;54.92;;;23.58;;
75576;SDS011;64157;50.138;14.544;2022-12-16T17:59:54;52.05;;;23.30;;
75576;SDS011;64157;50.138;14.544;2022-12-16T18:02:39;60.80;;;24.38;;
75576;SDS011;64157;50.138;14.544;2022-12-16T18:05:23;61.03;;;25.40;;
75576;SDS011;64157;50.138;14.544;2022-12-16T18:08:07;46.25;;;19.35;;
75576;SDS011;64157;50.138;14.544;2022-12-16T18:10:51;53.60;;;22.88;;
75576;SDS011;64157;50.138;14.544;2022-12-16T18:13:36;54.17;;;23.90;;
75576;SDS011;64157;50.138;14.544;2022-12-16T18:16:20;57.95;;;23.35;;
75576;SDS011;64157;50.138;14.544;2022-12-16T18:19:04;44.53;;;20.73;;
75576;SDS011;64157;50.138;14.544;2022-12-16T18:21:48;48.10;;;21.90;;
75576;SDS011;64157;50.138;14.544;2022-12-16T18:24:34;50.85;;;22.63;;